sensor_id;sensor_type;location;lat;lon;timestamp;P1;durP1;ratioP1;P2;durP2;ratioP2
29422;SDS011;16399;51.686;8.684;2023-08-21T00:02:30;9.63;;;6.78;;
29422;SDS011;16399;51.686;8.684;2023-08-21T00:05:32;12.00;;;6.20;;
29422;SDS011;16399;51.686;8.684;2023-08-21T00:08:34;10.38;;;6.58;;
29422;SDS011;16399;51.686;8.684;2023-08-21T00:11:37;10.45;;;6.55;;
29422;SDS011;16399;51.686;8.684;2023-08-21T00:14:39;8.23;;;6.35;;
29422;SDS011;16399;51.686;8.684;2023-08-21T00:17:41;10.03;;;5.70;;
29422;SDS011;16399;51.686;8.684;2023-08-21T00:20:43;9.03;;;6.37;;
29422;SDS011;16399;51.686;8.684;2023-08-21T00:23:46;8.80;;;6.20;;
29422;SDS011;16399;51.686;8.684;2023-08-21T00:26:48;11.53;;;6.37;;
29422;SDS011;16399;51.686;8.684;2023-08-21T00:29:50;12.50;;;6.55;;
29422;SDS011;16399;51.686;8.684;2023-08-21T00:32:53;12.90;;;5.75;;
29422;SDS011;16399;51.686;8.684;2023-08-21T00:35:55;8.38;;;6.28;;
29422;SDS011;16399;51.686;8.684;2023-08-21T00:38:57;9.95;;;6.70;;
29422;SDS011;16399;51.686;8.684;2023-08-21T00:41:59;10.30;;;5.70;;
29422;SDS011;16399;51.686;8.684;2023-08-21T00:45:02;13.15;;;6.10;;
29422;SDS011;16399;51.686;8.684;2023-08-21T00:48:04;9.15;;;6.00;;
29422;SDS011;16399;51.686;8.684;2023-08-21T00:51:07;10.15;;;6.25;;
29422;SDS011;16399;51.686;8.684;2023-08-21T00:54:09;8.15;;;5.78;;
29422;SDS011;16399;51.686;8.684;2023-08-21T00:57:12;8.08;;;5.42;;
29422;SDS011;16399;51.686;8.684;2023-08-21T01:00:15;10.93;;;6.30;;
29422;SDS011;16399;51.686;8.684;2023-08-21T01:03:18;14.90;;;5.53;;
29422;SDS011;16399;51.686;8.684;2023-08-21T01:06:20;8.95;;;5.78;;
29422;SDS011;16399;51.686;8.684;2023-08-21T01:12:59;9.05;;;5.85;;
29422;SDS011;16399;51.686;8.684;2023-08-21T01:16:02;10.00;;;6.28;;
29422;SDS011;16399;51.686;8.684;2023-08-21T01:19:09;13.62;;;6.20;;
29422;SDS011;16399;51.686;8.684;2023-08-21T01:22:12;10.38;;;5.75;;
29422;SDS011;16399;51.686;8.684;2023-08-21T01:25:14;10.03;;;5.62;;
29422;SDS011;16399;51.686;8.684;2023-08-21T01:28:16;8.93;;;5.90;;
29422;SDS011;16399;51.686;8.684;2023-08-21T01:31:21;10.48;;;5.45;;
29422;SDS011;16399;51.686;8.684;2023-08-21T01:34:24;8.38;;;5.85;;
29422;SDS011;16399;51.686;8.684;2023-08-21T01:37:28;8.98;;;5.28;;
29422;SDS011;16399;51.686;8.684;2023-08-21T01:40:31;8.50;;;5.20;;
29422;SDS011;16399;51.686;8.684;2023-08-21T01:43:33;10.95;;;5.65;;
29422;SDS011;16399;51.686;8.684;2023-08-21T01:46:35;9.23;;;5.58;;
29422;SDS011;16399;51.686;8.684;2023-08-21T01:49:37;8.85;;;5.62;;
29422;SDS011;16399;51.686;8.684;2023-08-21T01:52:40;7.40;;;5.08;;
29422;SDS011;16399;51.686;8.684;2023-08-21T01:55:42;10.80;;;5.90;;
29422;SDS011;16399;51.686;8.684;2023-08-21T01:58:44;10.88;;;5.30;;
29422;SDS011;16399;51.686;8.684;2023-08-21T02:01:47;9.28;;;5.67;;
29422;SDS011;16399;51.686;8.684;2023-08-21T02:04:49;10.63;;;5.30;;
29422;SDS011;16399;51.686;8.684;2023-08-21T02:07:51;9.00;;;5.03;;
29422;SDS011;16399;51.686;8.684;2023-08-21T02:10:54;8.23;;;5.17;;
29422;SDS011;16399;51.686;8.684;2023-08-21T02:13:56;9.00;;;5.62;;
29422;SDS011;16399;51.686;8.684;2023-08-21T02:16:58;10.78;;;5.33;;
29422;SDS011;16399;51.686;8.684;2023-08-21T02:20:00;10.65;;;5.65;;
29422;SDS011;16399;51.686;8.684;2023-08-21T02:23:03;10.18;;;5.42;;
29422;SDS011;16399;51.686;8.684;2023-08-21T02:26:05;8.48;;;5.10;;
29422;SDS011;16399;51.686;8.684;2023-08-21T02:29:07;7.17;;;4.62;;
29422;SDS011;16399;51.686;8.684;2023-08-21T02:32:10;10.88;;;4.95;;
29422;SDS011;16399;51.686;8.684;2023-08-21T02:35:12;7.45;;;5.00;;
29422;SDS011;16399;51.686;8.684;2023-08-21T02:38:14;9.65;;;4.85;;
29422;SDS011;16399;51.686;8.684;2023-08-21T02:41:17;9.00;;;4.90;;
29422;SDS011;16399;51.686;8.684;2023-08-21T02:44:19;9.30;;;5.28;;
29422;SDS011;16399;51.686;8.684;2023-08-21T02:47:21;12.25;;;5.20;;
29422;SDS011;16399;51.686;8.684;2023-08-21T02:50:24;12.95;;;5.35;;
29422;SDS011;16399;51.686;8.684;2023-08-21T02:53:26;8.45;;;5.33;;
29422;SDS011;16399;51.686;8.684;2023-08-21T02:56:28;9.78;;;5.70;;
29422;SDS011;16399;51.686;8.684;2023-08-21T02:59:31;7.65;;;4.97;;
29422;SDS011;16399;51.686;8.684;2023-08-21T03:02:33;9.60;;;4.55;;
29422;SDS011;16399;51.686;8.684;2023-08-21T03:05:35;11.57;;;5.25;;
29422;SDS011;16399;51.686;8.684;2023-08-21T03:08:37;8.28;;;4.35;;
29422;SDS011;16399;51.686;8.684;2023-08-21T03:11:40;8.93;;;4.83;;
29422;SDS011;16399;51.686;8.684;2023-08-21T03:14:42;10.93;;;5.20;;
29422;SDS011;16399;51.686;8.684;2023-08-21T03:17:44;6.58;;;4.83;;
29422;SDS011;16399;51.686;8.684;2023-08-21T03:20:47;11.35;;;5.08;;
29422;SDS011;16399;51.686;8.684;2023-08-21T03:23:55;7.28;;;4.33;;
29422;SDS011;16399;51.686;8.684;2023-08-21T03:26:59;9.40;;;4.47;;
29422;SDS011;16399;51.686;8.684;2023-08-21T03:30:02;11.78;;;4.58;;
29422;SDS011;16399;51.686;8.684;2023-08-21T03:33:05;8.30;;;4.67;;
29422;SDS011;16399;51.686;8.684;2023-08-21T03:36:08;6.95;;;4.08;;
29422;SDS011;16399;51.686;8.684;2023-08-21T03:39:11;7.90;;;4.70;;
29422;SDS011;16399;51.686;8.684;2023-08-21T03:42:13;6.85;;;4.17;;
29422;SDS011;16399;51.686;8.684;2023-08-21T03:45:15;10.90;;;4.55;;
29422;SDS011;16399;51.686;8.684;2023-08-21T03:48:18;11.50;;;4.62;;
29422;SDS011;16399;51.686;8.684;2023-08-21T03:51:20;6.35;;;4.00;;
29422;SDS011;16399;51.686;8.684;2023-08-21T03:54:22;8.70;;;4.30;;
29422;SDS011;16399;51.686;8.684;2023-08-21T03:57:25;13.55;;;4.30;;
29422;SDS011;16399;51.686;8.684;2023-08-21T04:00:27;6.62;;;4.20;;
29422;SDS011;16399;51.686;8.684;2023-08-21T04:03:29;8.13;;;3.90;;
29422;SDS011;16399;51.686;8.684;2023-08-21T04:06:31;7.67;;;4.22;;
29422;SDS011;16399;51.686;8.684;2023-08-21T04:09:34;9.03;;;4.10;;
29422;SDS011;16399;51.686;8.684;2023-08-21T04:12:36;8.70;;;4.15;;
29422;SDS011;16399;51.686;8.684;2023-08-21T04:15:38;7.75;;;3.92;;
29422;SDS011;16399;51.686;8.684;2023-08-21T04:18:42;7.53;;;3.87;;
29422;SDS011;16399;51.686;8.684;2023-08-21T04:21:44;9.58;;;4.30;;
29422;SDS011;16399;51.686;8.684;2023-08-21T04:24:47;10.05;;;4.30;;
29422;SDS011;16399;51.686;8.684;2023-08-21T04:27:49;7.78;;;4.45;;
29422;SDS011;16399;51.686;8.684;2023-08-21T04:30:51;16.67;;;4.75;;
29422;SDS011;16399;51.686;8.684;2023-08-21T04:33:54;7.35;;;3.87;;
29422;SDS011;16399;51.686;8.684;2023-08-21T04:36:56;8.55;;;3.72;;
29422;SDS011;16399;51.686;8.684;2023-08-21T04:39:58;10.85;;;3.90;;
29422;SDS011;16399;51.686;8.684;2023-08-21T04:43:00;7.53;;;3.90;;
29422;SDS011;16399;51.686;8.684;2023-08-21T04:46:03;9.90;;;4.25;;
29422;SDS011;16399;51.686;8.684;2023-08-21T04:49:06;7.87;;;3.60;;
29422;SDS011;16399;51.686;8.684;2023-08-21T04:52:09;6.80;;;3.77;;
29422;SDS011;16399;51.686;8.684;2023-08-21T04:55:11;7.10;;;3.15;;
29422;SDS011;16399;51.686;8.684;2023-08-21T04:58:13;6.83;;;3.30;;
29422;SDS011;16399;51.686;8.684;2023-08-21T05:01:17;11.97;;;3.05;;
29422;SDS011;16399;51.686;8.684;2023-08-21T05:04:19;6.33;;;3.40;;
29422;SDS011;16399;51.686;8.684;2023-08-21T05:07:21;6.70;;;3.40;;
29422;SDS011;16399;51.686;8.684;2023-08-21T05:10:24;10.78;;;3.35;;
29422;SDS011;16399;51.686;8.684;2023-08-21T05:13:26;5.72;;;3.45;;
29422;SDS011;16399;51.686;8.684;2023-08-21T05:16:29;9.65;;;3.25;;
29422;SDS011;16399;51.686;8.684;2023-08-21T05:19:31;8.23;;;4.10;;
29422;SDS011;16399;51.686;8.684;2023-08-21T05:22:33;6.83;;;3.77;;
29422;SDS011;16399;51.686;8.684;2023-08-21T05:25:36;9.95;;;4.00;;
29422;SDS011;16399;51.686;8.684;2023-08-21T05:28:39;6.45;;;3.20;;
29422;SDS011;16399;51.686;8.684;2023-08-21T05:31:41;6.83;;;2.95;;
29422;SDS011;16399;51.686;8.684;2023-08-21T05:34:43;15.80;;;3.27;;
29422;SDS011;16399;51.686;8.684;2023-08-21T05:37:46;10.10;;;3.00;;
29422;SDS011;16399;51.686;8.684;2023-08-21T05:40:48;6.33;;;3.08;;
29422;SDS011;16399;51.686;8.684;2023-08-21T05:43:51;9.98;;;2.92;;
29422;SDS011;16399;51.686;8.684;2023-08-21T05:46:53;10.30;;;2.80;;
29422;SDS011;16399;51.686;8.684;2023-08-21T05:49:56;7.87;;;3.00;;
29422;SDS011;16399;51.686;8.684;2023-08-21T05:52:58;13.03;;;2.90;;
29422;SDS011;16399;51.686;8.684;2023-08-21T05:56:02;7.67;;;2.83;;
29422;SDS011;16399;51.686;8.684;2023-08-21T05:59:04;7.78;;;3.02;;
29422;SDS011;16399;51.686;8.684;2023-08-21T06:02:06;8.53;;;3.15;;
29422;SDS011;16399;51.686;8.684;2023-08-21T06:05:09;8.33;;;3.35;;
29422;SDS011;16399;51.686;8.684;2023-08-21T06:08:11;10.55;;;3.85;;
29422;SDS011;16399;51.686;8.684;2023-08-21T06:11:13;6.67;;;2.90;;
29422;SDS011;16399;51.686;8.684;2023-08-21T06:14:16;6.20;;;3.05;;
29422;SDS011;16399;51.686;8.684;2023-08-21T06:17:18;10.32;;;3.77;;
29422;SDS011;16399;51.686;8.684;2023-08-21T06:20:20;10.10;;;2.90;;
29422;SDS011;16399;51.686;8.684;2023-08-21T06:23:23;10.08;;;2.90;;
29422;SDS011;16399;51.686;8.684;2023-08-21T06:26:25;6.85;;;2.83;;
29422;SDS011;16399;51.686;8.684;2023-08-21T06:29:27;9.25;;;2.92;;
29422;SDS011;16399;51.686;8.684;2023-08-21T06:32:29;6.60;;;2.55;;
29422;SDS011;16399;51.686;8.684;2023-08-21T06:35:32;7.53;;;2.50;;
29422;SDS011;16399;51.686;8.684;2023-08-21T06:38:36;7.10;;;2.63;;
29422;SDS011;16399;51.686;8.684;2023-08-21T06:41:38;6.95;;;2.55;;
29422;SDS011;16399;51.686;8.684;2023-08-21T06:44:40;12.13;;;2.47;;
29422;SDS011;16399;51.686;8.684;2023-08-21T06:47:42;5.28;;;2.37;;
29422;SDS011;16399;51.686;8.684;2023-08-21T06:50:45;10.38;;;2.90;;
29422;SDS011;16399;51.686;8.684;2023-08-21T06:53:47;12.05;;;3.30;;
29422;SDS011;16399;51.686;8.684;2023-08-21T06:56:49;8.18;;;2.60;;
29422;SDS011;16399;51.686;8.684;2023-08-21T06:59:52;11.30;;;3.10;;
29422;SDS011;16399;51.686;8.684;2023-08-21T07:02:54;8.98;;;2.98;;
29422;SDS011;16399;51.686;8.684;2023-08-21T07:05:57;9.40;;;2.50;;
29422;SDS011;16399;51.686;8.684;2023-08-21T07:09:01;11.03;;;2.87;;
29422;SDS011;16399;51.686;8.684;2023-08-21T07:12:03;6.95;;;2.60;;
29422;SDS011;16399;51.686;8.684;2023-08-21T07:15:06;8.98;;;2.70;;
29422;SDS011;16399;51.686;8.684;2023-08-21T07:18:09;9.45;;;2.60;;
29422;SDS011;16399;51.686;8.684;2023-08-21T07:21:11;6.70;;;2.20;;
29422;SDS011;16399;51.686;8.684;2023-08-21T07:24:14;7.25;;;2.10;;
29422;SDS011;16399;51.686;8.684;2023-08-21T07:27:16;8.48;;;2.45;;
29422;SDS011;16399;51.686;8.684;2023-08-21T07:30:18;9.08;;;2.47;;
29422;SDS011;16399;51.686;8.684;2023-08-21T07:33:21;10.10;;;2.40;;
29422;SDS011;16399;51.686;8.684;2023-08-21T07:36:23;8.40;;;2.30;;
29422;SDS011;16399;51.686;8.684;2023-08-21T07:39:26;9.35;;;2.85;;
29422;SDS011;16399;51.686;8.684;2023-08-21T07:42:28;7.55;;;2.08;;
29422;SDS011;16399;51.686;8.684;2023-08-21T07:45:30;11.43;;;2.08;;
29422;SDS011;16399;51.686;8.684;2023-08-21T07:48:33;8.33;;;2.45;;
29422;SDS011;16399;51.686;8.684;2023-08-21T07:51:36;7.63;;;1.77;;
29422;SDS011;16399;51.686;8.684;2023-08-21T07:54:39;6.87;;;2.20;;
29422;SDS011;16399;51.686;8.684;2023-08-21T07:57:41;7.17;;;2.15;;
29422;SDS011;16399;51.686;8.684;2023-08-21T08:00:43;9.53;;;2.58;;
29422;SDS011;16399;51.686;8.684;2023-08-21T08:03:45;7.65;;;1.77;;
29422;SDS011;16399;51.686;8.684;2023-08-21T08:06:48;6.15;;;1.85;;
29422;SDS011;16399;51.686;8.684;2023-08-21T08:09:50;9.38;;;2.55;;
29422;SDS011;16399;51.686;8.684;2023-08-21T08:12:52;5.78;;;2.00;;
29422;SDS011;16399;51.686;8.684;2023-08-21T08:15:55;8.10;;;1.85;;
29422;SDS011;16399;51.686;8.684;2023-08-21T08:18:57;14.75;;;3.22;;
29422;SDS011;16399;51.686;8.684;2023-08-21T08:21:59;7.35;;;2.30;;
29422;SDS011;16399;51.686;8.684;2023-08-21T08:25:02;6.83;;;1.82;;
29422;SDS011;16399;51.686;8.684;2023-08-21T08:28:06;11.93;;;2.02;;
29422;SDS011;16399;51.686;8.684;2023-08-21T08:31:15;5.42;;;2.02;;
29422;SDS011;16399;51.686;8.684;2023-08-21T08:34:18;8.18;;;1.72;;
29422;SDS011;16399;51.686;8.684;2023-08-21T08:37:21;6.40;;;2.10;;
29422;SDS011;16399;51.686;8.684;2023-08-21T08:40:23;5.17;;;1.85;;
29422;SDS011;16399;51.686;8.684;2023-08-21T08:43:25;5.00;;;1.90;;
29422;SDS011;16399;51.686;8.684;2023-08-21T08:46:30;7.97;;;1.82;;
29422;SDS011;16399;51.686;8.684;2023-08-21T08:49:32;6.12;;;1.50;;
29422;SDS011;16399;51.686;8.684;2023-08-21T08:52:35;6.78;;;1.70;;
29422;SDS011;16399;51.686;8.684;2023-08-21T08:55:39;5.42;;;1.80;;
29422;SDS011;16399;51.686;8.684;2023-08-21T08:58:42;6.90;;;1.90;;
29422;SDS011;16399;51.686;8.684;2023-08-21T09:01:44;6.25;;;1.70;;
29422;SDS011;16399;51.686;8.684;2023-08-21T09:04:46;6.20;;;1.62;;
29422;SDS011;16399;51.686;8.684;2023-08-21T09:08:01;3.83;;;1.57;;
29422;SDS011;16399;51.686;8.684;2023-08-21T09:11:06;5.42;;;1.72;;
29422;SDS011;16399;51.686;8.684;2023-08-21T09:14:08;9.73;;;1.65;;
29422;SDS011;16399;51.686;8.684;2023-08-21T09:17:12;5.78;;;1.87;;
29422;SDS011;16399;51.686;8.684;2023-08-21T09:20:15;5.42;;;1.62;;
29422;SDS011;16399;51.686;8.684;2023-08-21T09:23:18;4.58;;;1.20;;
29422;SDS011;16399;51.686;8.684;2023-08-21T09:26:21;6.15;;;1.90;;
29422;SDS011;16399;51.686;8.684;2023-08-21T09:29:24;6.70;;;1.40;;
29422;SDS011;16399;51.686;8.684;2023-08-21T09:32:26;5.30;;;1.42;;
29422;SDS011;16399;51.686;8.684;2023-08-21T09:35:29;9.55;;;1.30;;
29422;SDS011;16399;51.686;8.684;2023-08-21T09:38:34;3.72;;;1.22;;
29422;SDS011;16399;51.686;8.684;2023-08-21T09:41:38;6.55;;;1.50;;
29422;SDS011;16399;51.686;8.684;2023-08-21T09:44:41;5.35;;;1.52;;
29422;SDS011;16399;51.686;8.684;2023-08-21T09:47:43;4.17;;;1.32;;
29422;SDS011;16399;51.686;8.684;2023-08-21T09:50:46;3.02;;;1.20;;
29422;SDS011;16399;51.686;8.684;2023-08-21T09:53:48;5.53;;;1.55;;
29422;SDS011;16399;51.686;8.684;2023-08-21T09:56:51;5.00;;;1.40;;
29422;SDS011;16399;51.686;8.684;2023-08-21T09:59:53;7.83;;;2.15;;
29422;SDS011;16399;51.686;8.684;2023-08-21T10:02:58;5.37;;;1.40;;
29422;SDS011;16399;51.686;8.684;2023-08-21T10:06:04;8.20;;;1.42;;
29422;SDS011;16399;51.686;8.684;2023-08-21T10:09:06;5.80;;;1.25;;
29422;SDS011;16399;51.686;8.684;2023-08-21T10:12:10;4.07;;;1.30;;
29422;SDS011;16399;51.686;8.684;2023-08-21T10:15:14;8.40;;;2.37;;
29422;SDS011;16399;51.686;8.684;2023-08-21T10:18:18;7.20;;;1.52;;
29422;SDS011;16399;51.686;8.684;2023-08-21T10:21:22;4.53;;;1.47;;
29422;SDS011;16399;51.686;8.684;2023-08-21T10:24:33;7.22;;;1.55;;
29422;SDS011;16399;51.686;8.684;2023-08-21T10:27:38;4.95;;;1.50;;
29422;SDS011;16399;51.686;8.684;2023-08-21T10:30:42;4.03;;;1.70;;
29422;SDS011;16399;51.686;8.684;2023-08-21T10:33:49;5.40;;;2.00;;
29422;SDS011;16399;51.686;8.684;2023-08-21T10:37:02;4.25;;;1.70;;
29422;SDS011;16399;51.686;8.684;2023-08-21T10:39:56;6.20;;;1.62;;
29422;SDS011;16399;51.686;8.684;2023-08-21T10:42:58;5.67;;;1.95;;
29422;SDS011;16399;51.686;8.684;2023-08-21T10:46:01;7.03;;;2.58;;
29422;SDS011;16399;51.686;8.684;2023-08-21T10:49:04;6.15;;;2.20;;
29422;SDS011;16399;51.686;8.684;2023-08-21T10:52:07;5.58;;;2.17;;
29422;SDS011;16399;51.686;8.684;2023-08-21T10:55:13;4.37;;;1.85;;
29422;SDS011;16399;51.686;8.684;2023-08-21T10:58:18;5.28;;;2.30;;
29422;SDS011;16399;51.686;8.684;2023-08-21T11:01:21;4.20;;;1.90;;
29422;SDS011;16399;51.686;8.684;2023-08-21T11:04:23;5.20;;;2.35;;
29422;SDS011;16399;51.686;8.684;2023-08-21T11:07:26;6.55;;;2.08;;
29422;SDS011;16399;51.686;8.684;2023-08-21T11:10:30;6.45;;;2.02;;
29422;SDS011;16399;51.686;8.684;2023-08-21T11:13:33;6.60;;;2.45;;
29422;SDS011;16399;51.686;8.684;2023-08-21T11:16:36;5.35;;;2.00;;
29422;SDS011;16399;51.686;8.684;2023-08-21T11:19:38;5.28;;;1.85;;
29422;SDS011;16399;51.686;8.684;2023-08-21T11:22:42;5.92;;;1.75;;
29422;SDS011;16399;51.686;8.684;2023-08-21T11:25:44;6.67;;;1.60;;
29422;SDS011;16399;51.686;8.684;2023-08-21T11:28:47;7.08;;;2.10;;
29422;SDS011;16399;51.686;8.684;2023-08-21T11:31:49;7.80;;;2.22;;
29422;SDS011;16399;51.686;8.684;2023-08-21T11:34:53;7.53;;;2.20;;
29422;SDS011;16399;51.686;8.684;2023-08-21T11:37:57;8.85;;;1.80;;
29422;SDS011;16399;51.686;8.684;2023-08-21T11:41:00;6.10;;;2.12;;
29422;SDS011;16399;51.686;8.684;2023-08-21T11:44:03;5.95;;;2.02;;
29422;SDS011;16399;51.686;8.684;2023-08-21T11:47:06;6.20;;;2.05;;
29422;SDS011;16399;51.686;8.684;2023-08-21T11:50:08;4.28;;;1.95;;
29422;SDS011;16399;51.686;8.684;2023-08-21T11:53:12;6.37;;;1.98;;
29422;SDS011;16399;51.686;8.684;2023-08-21T11:56:15;4.12;;;1.90;;
29422;SDS011;16399;51.686;8.684;2023-08-21T11:59:26;6.35;;;2.05;;
29422;SDS011;16399;51.686;8.684;2023-08-21T12:02:26;6.08;;;1.90;;
29422;SDS011;16399;51.686;8.684;2023-08-21T12:05:29;5.50;;;1.87;;
29422;SDS011;16399;51.686;8.684;2023-08-21T12:08:32;9.03;;;2.02;;
29422;SDS011;16399;51.686;8.684;2023-08-21T12:11:34;6.75;;;2.05;;
29422;SDS011;16399;51.686;8.684;2023-08-21T12:14:38;6.97;;;2.00;;
29422;SDS011;16399;51.686;8.684;2023-08-21T12:17:40;3.65;;;1.80;;
29422;SDS011;16399;51.686;8.684;2023-08-21T12:20:42;4.97;;;2.30;;
29422;SDS011;16399;51.686;8.684;2023-08-21T12:23:45;4.47;;;1.55;;
29422;SDS011;16399;51.686;8.684;2023-08-21T12:26:47;7.33;;;2.10;;
29422;SDS011;16399;51.686;8.684;2023-08-21T12:29:49;7.08;;;2.05;;
29422;SDS011;16399;51.686;8.684;2023-08-21T12:32:52;5.70;;;2.30;;
29422;SDS011;16399;51.686;8.684;2023-08-21T12:35:54;4.17;;;1.98;;
29422;SDS011;16399;51.686;8.684;2023-08-21T12:38:56;5.05;;;2.22;;
29422;SDS011;16399;51.686;8.684;2023-08-21T12:41:58;5.87;;;1.90;;
29422;SDS011;16399;51.686;8.684;2023-08-21T12:45:01;7.12;;;2.22;;
29422;SDS011;16399;51.686;8.684;2023-08-21T12:48:03;5.30;;;2.40;;
29422;SDS011;16399;51.686;8.684;2023-08-21T12:51:06;5.45;;;2.37;;
29422;SDS011;16399;51.686;8.684;2023-08-21T12:54:08;9.43;;;2.45;;
29422;SDS011;16399;51.686;8.684;2023-08-21T12:57:10;6.05;;;2.12;;
29422;SDS011;16399;51.686;8.684;2023-08-21T13:00:13;5.67;;;2.20;;
29422;SDS011;16399;51.686;8.684;2023-08-21T13:03:16;5.45;;;2.75;;
29422;SDS011;16399;51.686;8.684;2023-08-21T13:06:18;7.83;;;2.30;;
29422;SDS011;16399;51.686;8.684;2023-08-21T13:09:20;10.08;;;3.50;;
29422;SDS011;16399;51.686;8.684;2023-08-21T13:15:26;6.62;;;3.00;;
29422;SDS011;16399;51.686;8.684;2023-08-21T13:18:29;6.33;;;2.95;;
29422;SDS011;16399;51.686;8.684;2023-08-21T13:21:31;7.55;;;2.80;;
29422;SDS011;16399;51.686;8.684;2023-08-21T13:24:33;7.75;;;2.92;;
29422;SDS011;16399;51.686;8.684;2023-08-21T13:27:35;15.10;;;4.67;;
29422;SDS011;16399;51.686;8.684;2023-08-21T13:30:38;8.28;;;3.30;;
29422;SDS011;16399;51.686;8.684;2023-08-21T13:33:46;6.75;;;2.67;;
29422;SDS011;16399;51.686;8.684;2023-08-21T13:36:50;5.37;;;2.50;;
29422;SDS011;16399;51.686;8.684;2023-08-21T13:39:53;6.78;;;2.42;;
29422;SDS011;16399;51.686;8.684;2023-08-21T13:42:55;4.78;;;2.67;;
29422;SDS011;16399;51.686;8.684;2023-08-21T13:45:59;4.17;;;2.12;;
29422;SDS011;16399;51.686;8.684;2023-08-21T13:49:04;4.95;;;2.42;;
29422;SDS011;16399;51.686;8.684;2023-08-21T13:52:06;5.42;;;2.22;;
29422;SDS011;16399;51.686;8.684;2023-08-21T13:55:09;8.08;;;3.00;;
29422;SDS011;16399;51.686;8.684;2023-08-21T13:58:12;6.47;;;3.02;;
29422;SDS011;16399;51.686;8.684;2023-08-21T14:01:15;8.93;;;2.58;;
29422;SDS011;16399;51.686;8.684;2023-08-21T14:04:18;7.97;;;2.80;;
29422;SDS011;16399;51.686;8.684;2023-08-21T14:07:21;14.87;;;3.95;;
29422;SDS011;16399;51.686;8.684;2023-08-21T14:10:23;5.80;;;2.58;;
29422;SDS011;16399;51.686;8.684;2023-08-21T14:13:26;7.28;;;2.72;;
29422;SDS011;16399;51.686;8.684;2023-08-21T14:16:28;7.47;;;3.08;;
29422;SDS011;16399;51.686;8.684;2023-08-21T14:19:31;6.85;;;2.08;;
29422;SDS011;16399;51.686;8.684;2023-08-21T14:22:33;6.78;;;2.62;;
29422;SDS011;16399;51.686;8.684;2023-08-21T14:25:35;8.48;;;2.42;;
29422;SDS011;16399;51.686;8.684;2023-08-21T14:28:38;6.62;;;2.42;;
29422;SDS011;16399;51.686;8.684;2023-08-21T14:31:40;9.10;;;2.67;;
29422;SDS011;16399;51.686;8.684;2023-08-21T14:34:42;7.37;;;2.60;;
29422;SDS011;16399;51.686;8.684;2023-08-21T14:37:46;8.03;;;2.87;;
29422;SDS011;16399;51.686;8.684;2023-08-21T14:40:48;9.33;;;2.80;;
29422;SDS011;16399;51.686;8.684;2023-08-21T14:43:52;9.08;;;2.45;;
29422;SDS011;16399;51.686;8.684;2023-08-21T14:46:55;4.58;;;2.30;;
29422;SDS011;16399;51.686;8.684;2023-08-21T14:49:58;5.97;;;2.20;;
29422;SDS011;16399;51.686;8.684;2023-08-21T14:53:00;5.35;;;2.15;;
29422;SDS011;16399;51.686;8.684;2023-08-21T14:56:03;6.78;;;2.20;;
29422;SDS011;16399;51.686;8.684;2023-08-21T14:59:05;5.58;;;2.33;;
29422;SDS011;16399;51.686;8.684;2023-08-21T15:02:09;6.65;;;2.15;;
29422;SDS011;16399;51.686;8.684;2023-08-21T15:05:11;7.95;;;2.80;;
29422;SDS011;16399;51.686;8.684;2023-08-21T15:08:15;8.53;;;2.35;;
29422;SDS011;16399;51.686;8.684;2023-08-21T15:11:18;5.47;;;2.02;;
29422;SDS011;16399;51.686;8.684;2023-08-21T15:14:20;5.55;;;1.90;;
29422;SDS011;16399;51.686;8.684;2023-08-21T15:17:22;6.03;;;1.82;;
29422;SDS011;16399;51.686;8.684;2023-08-21T15:20:25;8.70;;;2.12;;
29422;SDS011;16399;51.686;8.684;2023-08-21T15:23:27;5.78;;;1.90;;
29422;SDS011;16399;51.686;8.684;2023-08-21T15:26:29;7.05;;;1.70;;
29422;SDS011;16399;51.686;8.684;2023-08-21T15:29:31;6.92;;;1.92;;
29422;SDS011;16399;51.686;8.684;2023-08-21T15:32:34;4.78;;;1.72;;
29422;SDS011;16399;51.686;8.684;2023-08-21T15:35:36;8.30;;;1.90;;
29422;SDS011;16399;51.686;8.684;2023-08-21T15:38:39;7.03;;;2.12;;
29422;SDS011;16399;51.686;8.684;2023-08-21T15:41:41;7.80;;;1.87;;
29422;SDS011;16399;51.686;8.684;2023-08-21T15:44:43;3.62;;;1.70;;
29422;SDS011;16399;51.686;8.684;2023-08-21T15:47:46;5.65;;;1.95;;
29422;SDS011;16399;51.686;8.684;2023-08-21T15:50:48;4.40;;;1.70;;
29422;SDS011;16399;51.686;8.684;2023-08-21T15:53:51;7.78;;;2.40;;
29422;SDS011;16399;51.686;8.684;2023-08-21T15:56:53;6.37;;;1.75;;
29422;SDS011;16399;51.686;8.684;2023-08-21T15:59:55;7.78;;;2.60;;
29422;SDS011;16399;51.686;8.684;2023-08-21T16:02:58;6.65;;;1.92;;
29422;SDS011;16399;51.686;8.684;2023-08-21T16:06:00;5.75;;;1.92;;
29422;SDS011;16399;51.686;8.684;2023-08-21T16:09:03;6.47;;;2.15;;
29422;SDS011;16399;51.686;8.684;2023-08-21T16:12:06;6.50;;;2.00;;
29422;SDS011;16399;51.686;8.684;2023-08-21T16:15:08;9.38;;;1.92;;
29422;SDS011;16399;51.686;8.684;2023-08-21T16:18:10;8.03;;;2.00;;
29422;SDS011;16399;51.686;8.684;2023-08-21T16:21:13;6.33;;;2.58;;
29422;SDS011;16399;51.686;8.684;2023-08-21T16:24:15;5.12;;;1.67;;
29422;SDS011;16399;51.686;8.684;2023-08-21T16:27:18;5.70;;;1.92;;
29422;SDS011;16399;51.686;8.684;2023-08-21T16:30:20;9.10;;;2.77;;
29422;SDS011;16399;51.686;8.684;2023-08-21T16:33:22;8.00;;;2.20;;
29422;SDS011;16399;51.686;8.684;2023-08-21T16:36:25;6.22;;;2.05;;
29422;SDS011;16399;51.686;8.684;2023-08-21T16:39:27;9.58;;;2.12;;
29422;SDS011;16399;51.686;8.684;2023-08-21T16:42:29;5.05;;;2.10;;
29422;SDS011;16399;51.686;8.684;2023-08-21T16:45:31;7.45;;;2.27;;
29422;SDS011;16399;51.686;8.684;2023-08-21T16:48:34;6.35;;;2.05;;
29422;SDS011;16399;51.686;8.684;2023-08-21T16:51:36;6.15;;;2.10;;
29422;SDS011;16399;51.686;8.684;2023-08-21T16:54:38;5.85;;;2.00;;
29422;SDS011;16399;51.686;8.684;2023-08-21T16:57:41;5.90;;;1.75;;
29422;SDS011;16399;51.686;8.684;2023-08-21T17:00:43;4.78;;;1.60;;
29422;SDS011;16399;51.686;8.684;2023-08-21T17:03:45;6.20;;;1.70;;
29422;SDS011;16399;51.686;8.684;2023-08-21T17:06:48;8.08;;;1.47;;
29422;SDS011;16399;51.686;8.684;2023-08-21T17:09:50;4.60;;;1.10;;
29422;SDS011;16399;51.686;8.684;2023-08-21T17:12:52;7.55;;;1.55;;
29422;SDS011;16399;51.686;8.684;2023-08-21T17:15:55;6.67;;;1.62;;
29422;SDS011;16399;51.686;8.684;2023-08-21T17:18:59;4.00;;;1.32;;
29422;SDS011;16399;51.686;8.684;2023-08-21T17:22:01;4.65;;;1.40;;
29422;SDS011;16399;51.686;8.684;2023-08-21T17:25:03;3.17;;;1.20;;
29422;SDS011;16399;51.686;8.684;2023-08-21T17:28:06;7.37;;;1.77;;
29422;SDS011;16399;51.686;8.684;2023-08-21T17:31:09;5.90;;;1.22;;
29422;SDS011;16399;51.686;8.684;2023-08-21T17:34:11;10.15;;;1.45;;
29422;SDS011;16399;51.686;8.684;2023-08-21T17:37:13;4.65;;;1.27;;
29422;SDS011;16399;51.686;8.684;2023-08-21T17:40:17;3.92;;;1.40;;
29422;SDS011;16399;51.686;8.684;2023-08-21T17:43:20;4.50;;;1.20;;
29422;SDS011;16399;51.686;8.684;2023-08-21T17:46:22;4.87;;;1.60;;
29422;SDS011;16399;51.686;8.684;2023-08-21T17:49:24;5.50;;;1.50;;
29422;SDS011;16399;51.686;8.684;2023-08-21T17:52:27;6.75;;;1.37;;
29422;SDS011;16399;51.686;8.684;2023-08-21T17:55:29;4.62;;;1.15;;
29422;SDS011;16399;51.686;8.684;2023-08-21T17:58:34;6.40;;;1.40;;
29422;SDS011;16399;51.686;8.684;2023-08-21T18:01:38;7.83;;;1.60;;
29422;SDS011;16399;51.686;8.684;2023-08-21T18:04:41;5.67;;;1.47;;
29422;SDS011;16399;51.686;8.684;2023-08-21T18:07:43;4.92;;;1.20;;
29422;SDS011;16399;51.686;8.684;2023-08-21T18:10:46;4.55;;;1.50;;
29422;SDS011;16399;51.686;8.684;2023-08-21T18:13:49;4.28;;;1.57;;
29422;SDS011;16399;51.686;8.684;2023-08-21T18:16:55;7.62;;;1.80;;
29422;SDS011;16399;51.686;8.684;2023-08-21T18:19:57;9.20;;;1.95;;
29422;SDS011;16399;51.686;8.684;2023-08-21T18:22:59;4.28;;;1.10;;
29422;SDS011;16399;51.686;8.684;2023-08-21T18:26:01;6.15;;;1.72;;